createdAt,value
2022-09-20T00:01:32.207Z,100292.81
2022-09-20T00:04:04.891Z,100281.78
2022-09-20T00:06:34.188Z,100273.94
2022-09-20T00:09:03.144Z,100282.13
2022-09-20T00:11:33.613Z,100277.69
2022-09-20T00:14:03.582Z,100273.06
2022-09-20T00:16:35.114Z,100277.59
2022-09-20T00:19:05.176Z,100291.63
2022-09-20T00:21:36.393Z,100304.16
2022-09-20T00:24:05.888Z,100314.81
2022-09-20T00:26:34.015Z,100320.22
2022-09-20T00:29:02.093Z,100323.03
2022-09-20T00:31:30.413Z,100332.06
2022-09-20T00:34:17.797Z,100355.28
2022-09-20T00:36:47.069Z,100365.50
2022-09-20T00:39:18.317Z,100391.00
2022-09-20T00:41:46.745Z,100430.31
2022-09-20T00:44:43.832Z,100469.53
2022-09-20T00:47:17.583Z,100535.56
2022-09-20T00:49:47.234Z,100605.53
2022-09-20T00:52:16.844Z,100678.00
2022-09-20T00:54:45.055Z,100760.47
2022-09-20T00:57:13.357Z,100842.28
2022-09-20T00:59:44.939Z,100929.47
2022-09-20T01:02:15.880Z,101021.91
2022-09-20T01:04:44.767Z,101099.00
2022-09-20T01:07:17.218Z,101193.88
2022-09-20T01:09:45.138Z,101269.06
2022-09-20T01:12:17.224Z,101344.94
2022-09-20T01:14:47.956Z,101425.66
2022-09-20T01:17:17.108Z,101487.19
2022-09-20T01:19:54.470Z,101530.97
2022-09-20T01:22:26.537Z,101577.09
2022-09-20T01:25:06.076Z,101656.88
2022-09-20T01:27:44.030Z,101728.53
2022-09-20T01:30:16.225Z,101787.97
2022-09-20T01:32:53.334Z,101824.66
2022-09-20T01:35:24.509Z,101836.66
2022-09-20T01:38:12.714Z,101855.09
2022-09-20T01:40:49.022Z,101855.50
2022-09-20T01:43:27.775Z,101879.63
2022-09-20T01:45:56.047Z,101898.31
2022-09-20T01:48:33.237Z,101893.09
2022-09-20T01:51:37.297Z,101899.47
2022-09-20T01:54:44.593Z,101919.63
2022-09-20T01:57:47.284Z,101942.91
2022-09-20T02:00:18.707Z,101988.75
2022-09-20T02:03:21.990Z,102017.59
2022-09-20T02:06:19.419Z,102017.69
2022-09-20T02:09:14.640Z,102010.84
2022-09-20T02:11:53.583Z,102020.16
2022-09-20T02:14:40.160Z,102048.28
2022-09-20T02:17:13.973Z,102076.78
2022-09-20T02:20:21.780Z,102071.38
2022-09-20T02:23:01.775Z,102050.47
2022-09-20T02:25:47.144Z,102004.91
2022-09-20T02:28:26.970Z,101985.22
2022-09-20T02:31:03.731Z,101963.63
2022-09-20T02:33:58.542Z,101961.63
2022-09-20T02:36:40.207Z,101936.28
2022-09-20T02:39:14.301Z,101916.31
2022-09-20T02:42:04.995Z,101885.84
2022-09-20T02:44:54.620Z,101864.44
2022-09-20T02:47:32.904Z,101867.41
2022-09-20T02:50:22.790Z,101892.28
2022-09-20T02:53:06.102Z,101913.69
2022-09-20T02:55:43.187Z,101918.34
2022-09-20T02:58:28.058Z,101953.22
2022-09-20T03:01:02.804Z,101982.09
2022-09-20T03:03:41.056Z,101999.13
2022-09-20T03:06:29.794Z,102045.78
2022-09-20T03:09:08.039Z,102081.69
2022-09-20T03:11:44.100Z,102151.75
2022-09-20T03:14:22.940Z,102202.94
2022-09-20T03:17:05.541Z,102269.44
2022-09-20T03:19:54.692Z,102346.84
2022-09-20T03:22:37.575Z,102426.78
2022-09-20T03:25:33.022Z,102513.97
2022-09-20T03:28:10.953Z,102583.16
2022-09-20T03:30:55.408Z,102651.34
2022-09-20T03:33:34.835Z,102709.81
2022-09-20T03:36:18.403Z,102769.94
2022-09-20T03:39:09.548Z,102824.81
2022-09-20T03:42:07.862Z,102892.25
2022-09-20T03:45:03.340Z,102957.03
2022-09-20T03:47:46.531Z,103005.59
2022-09-20T03:50:34.675Z,102969.44
2022-09-20T03:53:20.674Z,103017.09
2022-09-20T03:56:10.565Z,103047.69
2022-09-20T03:58:58.356Z,103080.06
2022-09-20T04:01:41.412Z,103113.34
2022-09-20T04:04:18.294Z,103144.00
2022-09-20T04:07:04.081Z,103163.81
2022-09-20T04:10:00.251Z,103189.81
2022-09-20T04:12:41.474Z,103215.06
2022-09-20T04:15:27.030Z,103241.16
2022-09-20T04:18:03.869Z,103270.81
2022-09-20T04:20:39.668Z,103286.94
2022-09-20T04:23:16.504Z,103321.97
2022-09-20T04:25:48.574Z,103332.75
2022-09-20T04:28:23.433Z,103345.41
2022-09-20T04:30:56.777Z,103378.63
2022-09-20T04:33:30.948Z,103415.38
2022-09-20T04:36:28.781Z,103413.75
2022-09-20T04:39:05.260Z,103414.63
2022-09-20T04:42:13.929Z,103418.19
2022-09-20T04:45:08.397Z,103419.06
2022-09-20T04:48:14.616Z,103431.69
2022-09-20T04:51:27.251Z,103426.19
2022-09-20T04:54:28.573Z,103422.50
2022-09-20T04:57:17.168Z,103426.09
2022-09-20T05:00:01.919Z,103410.78
2022-09-20T05:02:56.131Z,103394.53
2022-09-20T05:05:50.317Z,103386.41
2022-09-20T05:08:49.257Z,103367.44
2022-09-20T05:11:57.147Z,103330.53
2022-09-20T05:14:46.831Z,103309.75
2022-09-20T05:17:26.299Z,103306.09
2022-09-20T05:20:14.336Z,103262.94
2022-09-20T05:23:11.387Z,103214.00
2022-09-20T05:26:08.150Z,103114.06
2022-09-20T05:28:44.812Z,103042.69
2022-09-20T05:31:17.722Z,102971.69
2022-09-20T05:33:53.541Z,102886.81
2022-09-20T05:36:34.391Z,102855.03
2022-09-20T05:39:18.982Z,102768.72
2022-09-20T05:41:54.556Z,102672.16
2022-09-20T05:44:32.577Z,102546.16
2022-09-20T05:47:10.095Z,102448.66
2022-09-20T05:49:51.402Z,102322.63
2022-09-20T05:52:45.763Z,102182.72
2022-09-20T05:55:27.144Z,102014.34
2022-09-20T05:58:12.428Z,101857.50
2022-09-20T06:13:36.234Z,101235.28
2022-09-20T06:20:14.649Z,101064.75
2022-09-20T06:22:46.016Z,100983.31
2022-09-20T06:25:22.928Z,100896.81
2022-09-20T06:27:55.208Z,100823.94
2022-09-20T06:30:33.164Z,100764.28
2022-09-20T06:33:11.715Z,100700.28
2022-09-20T06:35:45.602Z,100611.97
2022-09-20T06:38:50.218Z,100508.84
2022-09-20T06:41:32.184Z,100362.97
2022-09-20T06:44:07.050Z,100153.66
2022-09-20T06:46:37.479Z,99985.75
2022-09-20T06:49:09.012Z,99851.78
2022-09-20T06:51:39.430Z,99737.25
2022-09-20T06:54:11.473Z,99611.94
2022-09-20T06:56:41.236Z,99468.09
2022-09-20T06:59:10.443Z,99332.53
2022-09-20T07:01:38.531Z,99212.22
2022-09-20T07:04:07.369Z,99130.16
2022-09-20T07:06:37.729Z,99065.31
2022-09-20T07:09:06.745Z,99030.78
2022-09-20T07:11:35.056Z,98999.75
2022-09-20T07:14:05.172Z,98982.38
2022-09-20T07:16:33.450Z,98971.88
2022-09-20T07:19:01.689Z,98945.09
2022-09-20T07:21:29.846Z,98927.06
2022-09-20T07:23:58.087Z,98905.88
2022-09-20T07:26:28.706Z,98887.06
2022-09-20T07:28:58.934Z,98871.06
2022-09-20T07:31:30.997Z,98859.81
2022-09-20T07:33:59.333Z,98846.56
2022-09-20T07:36:27.495Z,98833.66
2022-09-20T07:38:56.146Z,98807.56
2022-09-20T07:41:31.600Z,98798.75
2022-09-20T07:44:20.061Z,98783.38
2022-09-20T07:46:50.758Z,98778.13
2022-09-20T07:49:18.913Z,98771.09
2022-09-20T07:51:46.945Z,98767.53
2022-09-20T07:54:14.979Z,98783.00
2022-09-20T07:56:44.061Z,98787.78
2022-09-20T07:59:13.191Z,98795.97
2022-09-20T08:01:41.575Z,98779.88
2022-09-20T08:04:11.486Z,98778.97
2022-09-20T08:06:41.409Z,98791.50
2022-09-20T08:09:22.829Z,98790.75
2022-09-20T08:11:51.465Z,98813.84
2022-09-20T08:14:44.011Z,98823.41
2022-09-20T08:17:22.232Z,98818.84
2022-09-20T08:20:17.421Z,98826.75
2022-09-20T08:23:00.935Z,98819.88
2022-09-20T08:25:35.349Z,98826.88
2022-09-20T08:28:06.590Z,98829.63
2022-09-20T08:30:35.340Z,98844.59
2022-09-20T08:33:11.541Z,98863.78
2022-09-20T08:35:41.363Z,98868.38
2022-09-20T08:45:45.118Z,98855.56
2022-09-20T08:48:19.963Z,98867.38
2022-09-20T08:50:52.659Z,98867.38
2022-09-20T08:53:27.935Z,98897.81
2022-09-20T09:03:17.140Z,98928.44
2022-09-20T09:06:10.749Z,99008.34
2022-09-20T09:08:46.482Z,99102.34
2022-09-20T09:11:17.269Z,99185.75
2022-09-20T09:16:57.274Z,99258.44
2022-09-20T09:19:50.211Z,99290.25
2022-09-20T09:22:26.565Z,99275.56
2022-09-20T09:25:25.573Z,99311.91
2022-09-20T09:27:56.139Z,99309.31
2022-09-20T09:30:34.415Z,99296.91
2022-09-20T09:33:26.690Z,99308.88
2022-09-20T09:36:17.074Z,99294.88
2022-09-20T09:38:57.133Z,99290.53
2022-09-20T09:42:34.530Z,99278.53
2022-09-20T09:45:14.675Z,99273.63
2022-09-20T09:48:10.988Z,99281.69
2022-09-20T09:52:20.952Z,99308.66
2022-09-20T09:55:05.446Z,99331.06
2022-09-20T09:58:10.550Z,99323.06
2022-09-20T10:00:53.272Z,99355.94
2022-09-20T10:03:47.233Z,99357.16
2022-09-20T10:06:31.763Z,99355.28
2022-09-20T10:09:19.675Z,99332.59
2022-09-20T10:12:00.920Z,99340.31
2022-09-20T10:14:43.726Z,99351.34
2022-09-20T10:17:28.983Z,99355.16
2022-09-20T10:20:12.145Z,99322.88
2022-09-20T10:23:26.540Z,99307.22
2022-09-20T10:25:47.554Z,99274.28
2022-09-20T10:28:33.566Z,99256.19
2022-09-20T10:31:11.176Z,99303.16
2022-09-20T10:33:51.561Z,99331.31
2022-09-20T10:36:27.039Z,99327.78
2022-09-20T10:39:02.006Z,99343.16
2022-09-20T10:42:01.944Z,99380.25
2022-09-20T10:44:45.456Z,99379.34
2022-09-20T10:47:20.276Z,99403.25
2022-09-20T10:49:58.554Z,99430.63
2022-09-20T10:52:47.724Z,99432.56
2022-09-20T10:55:30.643Z,99432.06
2022-09-20T10:58:38.229Z,99428.94
2022-09-20T11:01:16.335Z,99449.84
2022-09-20T11:04:23.656Z,99444.19
2022-09-20T11:07:04.150Z,99438.06
2022-09-20T11:09:45.674Z,99438.72
2022-09-20T11:12:28.711Z,99474.19
2022-09-20T11:15:00.520Z,99468.00
2022-09-20T11:17:34.760Z,99455.19
2022-09-20T11:20:09.444Z,99477.38
2022-09-20T11:22:45.672Z,99458.09
2022-09-20T11:25:20.846Z,99462.66
2022-09-20T11:27:54.938Z,99470.38
2022-09-20T11:30:24.749Z,99478.75
2022-09-20T11:32:59.378Z,99457.91
2022-09-20T11:35:33.673Z,99461.09
2022-09-20T11:38:15.739Z,99481.84
2022-09-20T11:40:51.828Z,99492.56
2022-09-20T11:43:29.312Z,99484.44
2022-09-20T11:46:02.948Z,99471.75
2022-09-20T11:48:36.709Z,99477.56
2022-09-20T11:51:31.412Z,99478.75
2022-09-20T11:54:33.194Z,99470.75
2022-09-20T11:57:01.404Z,99462.06
2022-09-20T11:59:35.413Z,99477.84
2022-09-20T12:02:16.643Z,99489.94
2022-09-20T12:04:49.610Z,99520.66
2022-09-20T12:07:20.505Z,99512.56
2022-09-20T12:09:57.857Z,99500.38
2022-09-20T12:12:39.347Z,99516.69
2022-09-20T12:15:23.109Z,99506.94
2022-09-20T12:18:39.843Z,99529.47
2022-09-20T12:21:22.974Z,99496.34
2022-09-20T12:24:22.654Z,99475.97
2022-09-20T12:27:00.045Z,99504.63
2022-09-20T12:29:57.459Z,99515.28
2022-09-20T12:32:42.613Z,99490.63
2022-09-20T12:35:56.000Z,99513.91
2022-09-20T12:38:31.266Z,99527.75
2022-09-20T12:41:01.581Z,99525.72
2022-09-20T12:43:33.002Z,99529.50
2022-09-20T12:46:06.371Z,99542.03
2022-09-20T12:48:39.336Z,99565.97
2022-09-20T12:51:38.211Z,99564.06
2022-09-20T12:54:11.278Z,99540.16
2022-09-20T12:56:47.341Z,99550.41
2022-09-20T12:59:31.046Z,99540.88
2022-09-20T13:02:34.311Z,99561.81
2022-09-20T13:05:02.392Z,99564.84
2022-09-20T13:07:53.532Z,99563.00
2022-09-20T13:10:50.072Z,99592.81
2022-09-20T13:13:31.887Z,99629.13
2022-09-20T13:16:08.032Z,99649.22
2022-09-20T13:18:42.965Z,99685.59
2022-09-20T13:21:11.262Z,99667.38
2022-09-20T13:23:48.409Z,99660.06
2022-09-20T13:26:17.747Z,99652.41
2022-09-20T13:28:51.654Z,99668.47
2022-09-20T13:31:33.816Z,99686.50
2022-09-20T13:34:16.938Z,99691.28
2022-09-20T13:36:45.976Z,99701.31
2022-09-20T13:39:33.432Z,99702.66
2022-09-20T13:42:14.359Z,99695.31
2022-09-20T13:44:48.797Z,99727.91
2022-09-20T13:48:27.632Z,99743.84
2022-09-20T13:55:00.826Z,99739.25
2022-09-20T13:57:40.366Z,99753.50
2022-09-20T14:00:19.230Z,99749.13
2022-09-20T14:03:06.322Z,99743.22
2022-09-20T14:06:27.878Z,99752.63
2022-09-20T14:09:00.363Z,99739.22
2022-09-20T14:11:34.099Z,99732.25
2022-09-20T14:14:21.311Z,99730.13
2022-09-20T14:20:56.895Z,99747.25
2022-09-20T14:27:44.702Z,99778.41
2022-09-20T14:31:01.794Z,99789.94
2022-09-20T14:33:55.552Z,99793.41
2022-09-20T14:36:45.371Z,99815.16
2022-09-20T14:39:19.982Z,99799.94
2022-09-20T14:41:50.026Z,99804.28
2022-09-20T14:44:29.630Z,99788.84
2022-09-20T14:47:18.732Z,99787.72
2022-09-20T14:49:52.548Z,99793.69
2022-09-20T14:52:39.526Z,99805.94
2022-09-20T14:55:33.783Z,99820.75
2022-09-20T14:58:18.556Z,99839.25
2022-09-20T15:01:05.939Z,99824.78
2022-09-20T15:03:42.477Z,99828.53
2022-09-20T15:06:22.072Z,99823.69
2022-09-20T15:09:00.453Z,99813.63
2022-09-20T15:11:31.675Z,99815.63
2022-09-20T15:14:00.778Z,99799.38
2022-09-20T15:16:30.773Z,99830.84
2022-09-20T15:18:59.965Z,99813.84
2022-09-20T15:21:32.641Z,99844.78
2022-09-20T15:24:06.560Z,99846.84
2022-09-20T15:26:37.234Z,99851.41
2022-09-20T15:29:07.708Z,99842.00
2022-09-20T15:31:38.146Z,99839.50
2022-09-20T15:34:12.829Z,99875.47
2022-09-20T15:36:42.010Z,99865.44
2022-09-20T15:39:10.953Z,99862.97
2022-09-20T15:41:40.592Z,99874.56
2022-09-20T15:44:11.774Z,99882.13
2022-09-20T15:46:42.438Z,99882.72
2022-09-20T15:49:14.353Z,99874.19
2022-09-20T15:51:44.333Z,99888.53
2022-09-20T15:54:15.730Z,99886.59
2022-09-20T15:56:47.239Z,99876.44
2022-09-20T15:59:23.466Z,99844.84
2022-09-20T16:01:56.541Z,99845.41
2022-09-20T16:04:27.164Z,99857.59
2022-09-20T16:06:56.107Z,99839.94
2022-09-20T16:09:32.381Z,99865.84
2022-09-20T16:12:04.746Z,99874.28
2022-09-20T16:14:39.673Z,99874.00
2022-09-20T16:17:09.552Z,99864.56
2022-09-20T16:19:40.289Z,99860.22
2022-09-20T16:22:08.951Z,99838.25
2022-09-20T16:25:15.313Z,99797.13
2022-09-20T16:59:34.192Z,99494.00
2022-09-20T17:02:47.107Z,99495.72
2022-09-20T17:05:31.739Z,99496.59
2022-09-20T17:08:03.936Z,99481.63
2022-09-20T17:14:44.057Z,99461.13
2022-09-20T17:17:13.153Z,99472.94
2022-09-20T17:23:41.449Z,99486.47
2022-09-20T17:26:13.758Z,99482.50
2022-09-20T17:28:43.699Z,99479.78
2022-09-20T17:31:15.174Z,99479.50
2022-09-20T17:33:44.977Z,99503.13
2022-09-20T17:36:16.690Z,99524.50
2022-09-20T17:38:44.948Z,99544.44
2022-09-20T17:41:18.371Z,99557.41
2022-09-20T17:43:48.100Z,99584.00
2022-09-20T17:46:20.382Z,99590.66
2022-09-20T17:48:48.991Z,99606.44
2022-09-20T17:51:18.788Z,99601.59
2022-09-20T17:53:48.025Z,99597.19
2022-09-20T17:56:16.478Z,99600.41
2022-09-20T17:58:44.821Z,99587.69
2022-09-20T18:01:15.331Z,99586.50
2022-09-20T18:03:47.158Z,99580.78
2022-09-20T18:06:17.552Z,99580.44
2022-09-20T18:08:51.822Z,99583.88
2022-09-20T18:11:24.040Z,99599.91
2022-09-20T18:13:52.668Z,99619.91
2022-09-20T18:16:21.133Z,99644.84
2022-09-20T18:18:50.771Z,99670.16
2022-09-20T18:21:20.610Z,99693.38
2022-09-20T18:23:50.377Z,99730.59
2022-09-20T18:26:24.355Z,99747.97
2022-09-20T18:28:54.959Z,99784.09
2022-09-20T18:31:24.153Z,99808.69
2022-09-20T18:33:59.737Z,99819.59
2022-09-20T18:36:28.621Z,99837.78
2022-09-20T18:39:01.569Z,99849.72
2022-09-20T18:41:32.978Z,99868.25
2022-09-20T18:44:03.988Z,99886.53
2022-09-20T18:46:33.049Z,99901.13
2022-09-20T18:49:05.090Z,99924.25
2022-09-20T18:51:39.054Z,99951.97
2022-09-20T18:54:08.990Z,99965.63
2022-09-20T18:56:38.391Z,99980.22
2022-09-20T18:59:08.700Z,100005.75
2022-09-20T19:01:52.719Z,100028.03
2022-09-20T19:04:33.672Z,100054.44
2022-09-20T19:07:09.753Z,100072.94
2022-09-20T19:09:46.947Z,100084.81
2022-09-20T19:12:21.923Z,100109.25
2022-09-20T19:15:13.102Z,100125.53
2022-09-20T19:17:55.454Z,100136.03
2022-09-20T19:20:34.961Z,100149.53
2022-09-20T19:23:16.299Z,100164.03
2022-09-20T19:25:48.694Z,100160.25
2022-09-20T19:28:17.606Z,100172.78
2022-09-20T19:30:48.163Z,100174.72
2022-09-20T19:33:18.522Z,100183.69
2022-09-20T19:35:51.381Z,100186.75
2022-09-20T19:38:34.251Z,100174.00
2022-09-20T19:41:14.249Z,100172.16
2022-09-20T19:44:05.177Z,100176.25
2022-09-20T19:46:45.306Z,100182.94
2022-09-20T19:49:15.649Z,100188.47
2022-09-20T19:51:45.949Z,100194.41
2022-09-20T19:54:15.933Z,100208.53
2022-09-20T19:56:55.476Z,100199.25
2022-09-20T19:59:25.754Z,100208.41
2022-09-20T20:01:55.002Z,100211.66
2022-09-20T20:04:24.011Z,100216.50
2022-09-20T20:07:02.073Z,100205.94
2022-09-20T20:09:40.074Z,100203.25
2022-09-20T20:12:15.824Z,100213.50
2022-09-20T20:14:55.678Z,100225.28
2022-09-20T20:17:41.609Z,100245.13
2022-09-20T20:20:20.875Z,100261.31
2022-09-20T20:23:27.875Z,100267.75
2022-09-20T20:26:03.041Z,100288.59
2022-09-20T20:28:31.600Z,100302.34
2022-09-20T20:31:02.226Z,100309.53
2022-09-20T20:33:32.104Z,100325.09
2022-09-20T20:36:02.323Z,100349.38
2022-09-20T20:38:32.659Z,100374.16
2022-09-20T20:41:04.648Z,100390.81
2022-09-20T20:43:33.214Z,100411.13
2022-09-20T20:46:01.372Z,100440.72
2022-09-20T20:48:30.155Z,100475.03
2022-09-20T20:51:02.884Z,100487.47
2022-09-20T20:53:34.263Z,100504.81
2022-09-20T20:56:04.051Z,100540.16
2022-09-20T20:58:33.662Z,100574.66
2022-09-20T21:01:06.545Z,100594.13
2022-09-20T21:03:35.319Z,100625.75
2022-09-20T21:06:04.987Z,100640.00
2022-09-20T21:08:35.972Z,100595.00
2022-09-20T21:11:06.372Z,100596.53
2022-09-20T21:13:35.304Z,100598.19
2022-09-20T21:16:08.912Z,100592.31
2022-09-20T21:18:37.289Z,100595.09
2022-09-20T21:21:06.713Z,100601.75
2022-09-20T21:23:36.349Z,100601.16
2022-09-20T21:26:08.549Z,100615.66
2022-09-20T21:28:38.355Z,100611.81
2022-09-20T21:31:08.012Z,100609.00
2022-09-20T21:33:38.756Z,100612.84
2022-09-20T21:36:08.893Z,100627.28
2022-09-20T21:38:38.319Z,100654.28
2022-09-20T21:41:08.773Z,100672.59
2022-09-20T21:43:37.346Z,100681.16
2022-09-20T21:46:05.282Z,100702.06
2022-09-20T21:48:33.636Z,100703.28
2022-09-20T21:51:03.325Z,100721.38
2022-09-20T21:53:31.492Z,100721.44
2022-09-20T21:56:02.210Z,100720.69
2022-09-20T21:58:30.775Z,100728.00
2022-09-20T22:01:00.845Z,100721.03
2022-09-20T22:03:36.543Z,100707.00
2022-09-20T22:06:09.428Z,100705.25
2022-09-20T22:08:38.591Z,100696.47
2022-09-20T22:11:12.281Z,100691.00
2022-09-20T22:13:43.691Z,100680.56
2022-09-20T22:16:14.731Z,100659.28
2022-09-20T22:18:44.306Z,100637.13
2022-09-20T22:21:13.982Z,100628.09
2022-09-20T22:23:42.771Z,100596.78
2022-09-20T22:26:15.240Z,100581.16
2022-09-20T22:28:43.645Z,100559.63
2022-09-20T22:31:14.168Z,100536.72
2022-09-20T22:33:44.432Z,100510.50
2022-09-20T22:36:14.275Z,100494.94
2022-09-20T22:38:43.132Z,100477.22
2022-09-20T22:41:13.250Z,100441.91
2022-09-20T22:43:41.813Z,100437.22
2022-09-20T22:46:11.217Z,100430.78
2022-09-20T22:48:39.931Z,100428.34
2022-09-20T22:51:09.773Z,100427.66
2022-09-20T22:53:38.069Z,100433.16
2022-09-20T22:56:07.534Z,100434.31
2022-09-20T22:58:38.452Z,100432.00
2022-09-20T23:01:08.194Z,100424.78
2022-09-20T23:03:36.452Z,100427.47
2022-09-20T23:06:04.560Z,100432.94
2022-09-20T23:08:33.582Z,100442.09
2022-09-20T23:11:03.216Z,100452.25
2022-09-20T23:13:31.440Z,100457.38
2022-09-20T23:16:00.715Z,100459.38
2022-09-20T23:18:28.643Z,100458.31
2022-09-20T23:21:00.736Z,100460.34
2022-09-20T23:23:28.747Z,100455.22
2022-09-20T23:25:57.000Z,100457.81
2022-09-20T23:28:27.344Z,100458.53
2022-09-20T23:30:55.300Z,100463.69
2022-09-20T23:33:24.724Z,100460.63
2022-09-20T23:35:52.842Z,100459.16
2022-09-20T23:38:20.774Z,100464.63
2022-09-20T23:40:48.679Z,100451.94
2022-09-20T23:43:16.775Z,100443.09
2022-09-20T23:45:45.024Z,100416.09
2022-09-20T23:48:12.964Z,100397.31
2022-09-20T23:50:44.150Z,100371.94
2022-09-20T23:53:12.151Z,100355.00
2022-09-20T23:55:40.164Z,100343.09
2022-09-20T23:58:08.119Z,100348.69
